Terminal Aerodrome Forecast
Issued by NWS

Home | Current Version | Previous Version | Text Only | Print | Product List | Glossary On
Versions: 1 2 3 4 5 6 7 8 9 10 11 12 13 14 15 16 17 18 19 20 21 22 23 24 25 26 27 28 29 30 31 32 33 34
000
FTUS43 KDLH 130845 AAE
TAFBRD
TAF AMD
KBRD 130845Z 1309/1406 VRB03KT P6SM VCSH BKN008 OVC070
     FM131000 VRB04KT P6SM -SN OVC008
     FM131800 34015G24KT P6SM BKN020
     FM132100 34014G23KT P6SM BKN040
     FM140000 34008KT P6SM BKN035=

USA.gov is the U.S. government's official web portal to all federal, state and local government web resources and services.